createdAt,value
2019-05-09T00:01:39.667Z,13.38
2019-05-09T00:02:39.594Z,13.31
2019-05-09T00:04:33.501Z,13.41
2019-05-09T00:05:33.531Z,13.36
2019-05-09T00:07:25.111Z,13.36
2019-05-09T00:08:25.022Z,13.31
2019-05-09T00:10:17.823Z,13.39
2019-05-09T00:11:17.745Z,13.41
2019-05-09T00:13:09.736Z,13.50
2019-05-09T00:14:09.661Z,13.38
2019-05-09T00:16:03.672Z,13.44
2019-05-09T00:17:03.746Z,13.43
2019-05-09T00:18:55.141Z,13.47
2019-05-09T00:19:55.162Z,13.51
2019-05-09T00:21:47.931Z,13.51
2019-05-09T00:22:47.799Z,13.53
2019-05-09T00:24:39.805Z,13.46
2019-05-09T00:25:39.636Z,13.50
2019-05-09T00:27:33.243Z,13.59
2019-05-09T00:28:33.736Z,13.59
2019-05-09T00:30:24.127Z,13.54
2019-05-09T00:31:24.052Z,13.66
2019-05-09T00:33:16.873Z,13.61
2019-05-09T00:34:16.774Z,13.61
2019-05-09T00:36:09.572Z,13.69
2019-05-09T00:37:09.495Z,13.63
2019-05-09T00:39:04.118Z,13.54
2019-05-09T00:40:04.049Z,13.57
2019-05-09T00:41:53.978Z,13.46
2019-05-09T00:42:53.972Z,13.48
2019-05-09T00:44:45.797Z,13.39
2019-05-09T00:45:45.718Z,13.39
2019-05-09T00:47:37.525Z,13.41
2019-05-09T00:48:37.460Z,13.29
2019-05-09T00:50:30.234Z,13.29
2019-05-09T00:51:30.166Z,13.36
2019-05-09T00:53:23.317Z,13.35
2019-05-09T00:54:24.043Z,13.36
2019-05-09T00:56:15.733Z,13.29
2019-05-09T00:57:15.618Z,13.27
2019-05-09T00:59:07.604Z,13.32
2019-05-09T01:00:07.522Z,13.35
2019-05-09T01:02:00.282Z,13.41
2019-05-09T01:03:00.217Z,13.35
2019-05-09T01:04:53.193Z,13.35
2019-05-09T01:05:54.282Z,13.35
2019-05-09T01:07:45.746Z,13.47
2019-05-09T01:08:45.683Z,13.28
2019-05-09T01:10:38.409Z,13.41
2019-05-09T01:11:38.346Z,13.44
2019-05-09T01:13:31.264Z,13.39
2019-05-09T01:14:31.080Z,13.44
2019-05-09T01:16:24.325Z,13.53
2019-05-09T01:17:24.144Z,13.53
2019-05-09T01:19:16.525Z,13.51
2019-05-09T01:20:16.452Z,13.57
2019-05-09T01:22:09.219Z,13.53
2019-05-09T01:23:09.140Z,13.57
2019-05-09T01:25:04.008Z,13.61
2019-05-09T01:26:03.798Z,13.63
2019-05-09T01:27:54.615Z,13.68
2019-05-09T01:28:54.538Z,13.65
2019-05-09T01:30:47.328Z,13.66
2019-05-09T01:31:47.247Z,13.54
2019-05-09T01:33:40.046Z,13.72
2019-05-09T01:34:39.949Z,13.71
2019-05-09T01:36:33.883Z,13.63
2019-05-09T01:37:34.175Z,13.66
2019-05-09T01:39:25.447Z,13.63
2019-05-09T01:40:25.366Z,13.55
2019-05-09T01:42:17.213Z,13.54
2019-05-09T01:43:17.146Z,13.61
2019-05-09T01:45:09.921Z,13.75
2019-05-09T01:46:09.851Z,13.68
2019-05-09T01:48:03.307Z,13.69
2019-05-09T01:49:03.179Z,13.72
2019-05-09T01:50:55.347Z,13.76
2019-05-09T01:51:55.254Z,13.75
2019-05-09T01:53:48.078Z,13.71
2019-05-09T01:55:48.826Z,13.83
2019-05-09T01:56:48.762Z,13.81
2019-05-09T01:58:43.097Z,13.72
2019-05-09T01:59:41.474Z,13.73
2019-05-09T02:01:34.483Z,13.80
2019-05-09T02:02:34.164Z,13.71
2019-05-09T02:04:26.957Z,13.69
2019-05-09T02:05:26.875Z,13.69
2019-05-09T02:07:19.639Z,13.72
2019-05-09T02:08:19.574Z,13.72
2019-05-09T02:10:13.948Z,13.69
2019-05-09T02:11:13.253Z,13.66
2019-05-09T02:13:05.262Z,13.73
2019-05-09T02:14:05.049Z,13.63
2019-05-09T02:15:57.838Z,13.68
2019-05-09T02:16:57.763Z,13.68
2019-05-09T02:18:50.541Z,13.75
2019-05-09T02:19:50.470Z,13.72
2019-05-09T02:21:43.823Z,13.62
2019-05-09T02:22:43.583Z,13.72
2019-05-09T02:24:35.981Z,13.66
2019-05-09T02:25:35.889Z,13.66
2019-05-09T02:27:28.694Z,13.61
2019-05-09T02:28:28.595Z,13.51
2019-05-09T02:30:25.095Z,13.68
2019-05-09T02:31:24.161Z,13.66
2019-05-09T02:33:14.755Z,13.55
2019-05-09T02:34:15.206Z,13.63
2019-05-09T02:36:09.471Z,13.65
2019-05-09T02:37:09.262Z,13.65
2019-05-09T02:38:59.508Z,13.68
2019-05-09T02:39:59.443Z,13.57
2019-05-09T02:42:04.882Z,13.65
2019-05-09T02:42:52.141Z,13.61
2019-05-09T02:44:44.938Z,13.63
2019-05-09T02:45:49.341Z,13.55
2019-05-09T02:47:38.626Z,13.62
2019-05-09T02:48:38.663Z,13.65
2019-05-09T02:50:30.348Z,13.62
2019-05-09T02:51:30.273Z,13.59
2019-05-09T02:53:23.063Z,13.63
2019-05-09T02:54:22.978Z,13.61
2019-05-09T02:56:18.515Z,13.62
2019-05-09T02:57:18.499Z,13.65
2019-05-09T02:59:09.560Z,13.65
2019-05-09T03:00:08.805Z,13.66
2019-05-09T03:02:01.191Z,13.71
2019-05-09T03:03:01.101Z,13.61
2019-05-09T03:04:53.904Z,13.66
2019-05-09T03:05:53.807Z,13.61
2019-05-09T03:07:48.665Z,13.61
2019-05-09T03:08:49.036Z,13.55
2019-05-09T03:10:39.293Z,13.53
2019-05-09T03:11:39.482Z,13.62
2019-05-09T03:13:31.986Z,13.48
2019-05-09T03:14:31.922Z,13.61
2019-05-09T03:16:24.717Z,13.47
2019-05-09T03:17:24.615Z,13.50
2019-05-09T03:19:19.493Z,13.50
2019-05-09T03:20:18.184Z,13.44
2019-05-09T03:22:10.130Z,13.50
2019-05-09T03:23:10.035Z,13.27
2019-05-09T03:25:03.131Z,13.44
2019-05-09T03:26:02.732Z,13.47
2019-05-09T03:27:58.531Z,13.31
2019-05-09T03:28:58.865Z,13.31
2019-05-09T03:30:50.097Z,13.35
2019-05-09T03:31:50.166Z,13.31
2019-05-09T03:33:41.169Z,13.31
2019-05-09T03:34:40.846Z,13.31
2019-05-09T03:36:33.625Z,13.31
2019-05-09T03:37:33.545Z,13.28
2019-05-09T03:39:27.601Z,13.27
2019-05-09T03:40:27.200Z,13.27
2019-05-09T03:42:23.042Z,13.29
2019-05-09T03:43:18.939Z,13.19
2019-05-09T03:45:11.721Z,13.21
2019-05-09T03:46:11.661Z,13.25
2019-05-09T03:48:04.422Z,13.28
2019-05-09T03:49:04.343Z,13.27
2019-05-09T03:50:57.733Z,13.24
2019-05-09T03:51:58.456Z,13.25
2019-05-09T03:53:49.820Z,13.27
2019-05-09T03:54:49.756Z,13.31
2019-05-09T03:56:42.549Z,13.28
2019-05-09T03:57:42.459Z,13.25
2019-05-09T03:59:35.222Z,13.31
2019-05-09T04:00:37.456Z,13.27
2019-05-09T04:02:28.226Z,13.28
2019-05-09T04:03:27.890Z,13.21
2019-05-09T04:05:20.707Z,13.28
2019-05-09T04:06:20.617Z,13.21
2019-05-09T04:08:13.401Z,13.19
2019-05-09T04:09:13.320Z,13.13
2019-05-09T04:11:08.407Z,13.17
2019-05-09T04:12:07.546Z,13.22
2019-05-09T04:13:58.787Z,13.29
2019-05-09T04:14:58.745Z,13.29
2019-05-09T04:16:51.513Z,13.39
2019-05-09T04:17:51.423Z,13.41
2019-05-09T04:19:44.187Z,13.38
2019-05-09T04:20:44.125Z,13.41
2019-05-09T04:22:38.564Z,13.38
2019-05-09T04:23:37.864Z,13.50
2019-05-09T04:25:29.632Z,13.53
2019-05-09T04:26:29.543Z,13.59
2019-05-09T04:28:22.331Z,13.54
2019-05-09T04:29:22.243Z,13.66
2019-05-09T04:31:15.023Z,13.73
2019-05-09T04:32:14.953Z,13.80
2019-05-09T04:34:09.725Z,13.87
2019-05-09T04:35:08.157Z,13.93
2019-05-09T04:37:00.456Z,13.99
2019-05-09T04:38:00.378Z,14.13
2019-05-09T04:39:54.040Z,14.04
2019-05-09T04:40:53.077Z,14.06
2019-05-09T04:42:47.431Z,14.11
2019-05-09T04:43:45.775Z,14.04
2019-05-09T04:45:41.749Z,14.05
2019-05-09T04:46:38.467Z,14.16
2019-05-09T04:48:31.273Z,14.01
2019-05-09T04:49:39.201Z,14.06
2019-05-09T04:51:23.997Z,13.98
2019-05-09T04:52:23.900Z,14.12
2019-05-09T04:54:17.759Z,14.06
2019-05-09T04:55:18.221Z,14.04
2019-05-09T04:57:09.398Z,13.90
2019-05-09T04:58:09.432Z,13.90
2019-05-09T05:00:02.113Z,13.91
2019-05-09T05:01:02.029Z,13.99
2019-05-09T05:02:54.864Z,14.01
2019-05-09T05:03:54.784Z,13.94
2019-05-09T05:05:48.220Z,14.02
2019-05-09T05:06:47.854Z,14.04
2019-05-09T05:08:40.237Z,14.13
2019-05-09T05:09:40.177Z,14.05
2019-05-09T05:11:32.933Z,14.27
2019-05-09T05:12:32.881Z,14.24
2019-05-09T05:14:27.993Z,14.36
2019-05-09T05:15:27.560Z,14.34
2019-05-09T05:17:18.356Z,14.45
2019-05-09T05:18:20.294Z,14.45
2019-05-09T05:20:11.079Z,14.42
2019-05-09T05:21:10.999Z,14.41
2019-05-09T05:23:03.788Z,14.23
2019-05-09T05:24:03.698Z,14.13
2019-05-09T05:25:57.967Z,14.05
2019-05-09T05:26:57.920Z,14.19
2019-05-09T05:28:49.211Z,14.20
2019-05-09T05:29:49.129Z,14.09
2019-05-09T05:31:41.907Z,14.12
2019-05-09T05:32:41.862Z,14.13
2019-05-09T05:34:34.632Z,14.26
2019-05-09T05:35:34.569Z,14.36
2019-05-09T05:37:28.054Z,14.38
2019-05-09T05:38:27.612Z,14.42
2019-05-09T05:40:20.080Z,14.49
2019-05-09T05:41:19.959Z,14.53
2019-05-09T05:43:12.742Z,14.52
2019-05-09T05:44:12.674Z,14.49
2019-05-09T05:46:07.571Z,14.54
2019-05-09T05:47:07.578Z,14.49
2019-05-09T05:48:58.151Z,14.52
2019-05-09T05:49:58.075Z,14.49
2019-05-09T05:51:50.837Z,14.53
2019-05-09T05:52:50.764Z,14.48
2019-05-09T05:54:43.554Z,14.64
2019-05-09T05:55:43.475Z,14.52
2019-05-09T05:57:38.385Z,14.54
2019-05-09T05:58:38.507Z,14.60
2019-05-09T06:00:29.012Z,14.71
2019-05-09T06:01:28.886Z,14.79
2019-05-09T06:03:21.745Z,14.82
2019-05-09T06:04:21.652Z,14.93
2019-05-09T06:06:14.429Z,14.94
2019-05-09T06:07:14.356Z,14.80
2019-05-09T06:09:08.257Z,14.91
2019-05-09T06:10:08.280Z,14.75
2019-05-09T06:11:59.860Z,14.75
2019-05-09T06:12:59.804Z,14.80
2019-05-09T06:14:52.556Z,14.79
2019-05-09T06:15:52.599Z,14.75
2019-05-09T06:17:45.402Z,14.66
2019-05-09T06:18:47.432Z,14.53
2019-05-09T06:20:38.658Z,14.52
2019-05-09T06:21:37.890Z,14.61
2019-05-09T06:23:30.658Z,14.69
2019-05-09T06:24:30.594Z,14.78
2019-05-09T06:26:23.383Z,14.79
2019-05-09T06:27:23.296Z,14.83
2019-05-09T06:29:17.824Z,14.71
2019-05-09T06:30:17.540Z,14.82
2019-05-09T06:32:08.769Z,14.98
2019-05-09T06:33:09.150Z,15.04
2019-05-09T06:35:01.529Z,15.27
2019-05-09T06:36:01.429Z,15.48
2019-05-09T06:37:54.210Z,15.62
2019-05-09T06:38:54.141Z,15.80
2019-05-09T06:40:47.614Z,16.08
2019-05-09T06:41:48.291Z,16.25
2019-05-09T06:43:39.684Z,16.16
2019-05-09T06:44:39.546Z,16.13
2019-05-09T06:46:32.338Z,15.95
2019-05-09T06:47:32.287Z,15.86
2019-05-09T06:49:29.275Z,15.80
2019-05-09T06:50:27.111Z,15.67
2019-05-09T06:52:17.748Z,15.58
2019-05-09T06:53:18.255Z,15.52
2019-05-09T06:55:10.494Z,15.55
2019-05-09T06:56:10.498Z,15.59
2019-05-09T06:58:03.219Z,15.62
2019-05-09T06:59:03.148Z,15.52
2019-05-09T07:00:58.282Z,15.53
2019-05-09T07:01:57.578Z,15.40
2019-05-09T07:03:48.669Z,15.49
2019-05-09T07:04:48.580Z,15.40
2019-05-09T07:06:41.362Z,15.35
2019-05-09T07:07:41.290Z,15.35
2019-05-09T07:09:34.050Z,15.38
2019-05-09T07:10:33.985Z,15.41
2019-05-09T07:12:27.387Z,15.56
2019-05-09T07:13:27.590Z,15.46
2019-05-09T07:15:19.544Z,15.59
2019-05-09T07:16:19.446Z,15.60
2019-05-09T07:18:12.216Z,15.81
2019-05-09T07:19:12.145Z,16.01
2019-05-09T07:21:04.951Z,16.40
2019-05-09T07:22:04.850Z,16.59
2019-05-09T07:23:58.331Z,16.77
2019-05-09T07:25:05.894Z,16.65
2019-05-09T07:26:50.371Z,16.45
2019-05-09T07:27:50.306Z,16.42
2019-05-09T07:29:43.098Z,16.16
2019-05-09T07:30:43.026Z,16.14
2019-05-09T07:32:38.125Z,15.88
2019-05-09T07:33:38.220Z,15.89
2019-05-09T07:35:28.514Z,15.91
2019-05-09T07:36:28.440Z,15.93
2019-05-09T07:38:21.248Z,15.91
2019-05-09T07:39:21.153Z,15.86
2019-05-09T07:41:13.954Z,15.95
2019-05-09T07:42:13.911Z,15.93
2019-05-09T07:44:07.637Z,16.22
2019-05-09T07:45:08.872Z,16.34
2019-05-09T07:46:59.365Z,16.55
2019-05-09T07:47:59.285Z,16.66
2019-05-09T07:49:52.114Z,16.82
2019-05-09T07:50:52.030Z,16.80
2019-05-09T07:52:44.810Z,16.87
2019-05-09T07:53:44.759Z,16.81
2019-05-09T07:55:38.001Z,16.80
2019-05-09T07:56:37.908Z,16.80
2019-05-09T07:58:30.254Z,16.77
2019-05-09T07:59:30.138Z,16.72
2019-05-09T08:01:21.927Z,16.81
2019-05-09T08:02:21.868Z,16.63
2019-05-09T08:04:14.636Z,16.75
2019-05-09T08:05:14.605Z,16.78
2019-05-09T08:07:08.400Z,16.80
2019-05-09T08:08:07.983Z,16.82
2019-05-09T08:09:59.134Z,16.69
2019-05-09T08:10:59.064Z,16.67
2019-05-09T08:12:50.891Z,16.78
2019-05-09T08:13:50.819Z,16.92
2019-05-09T08:15:43.595Z,17.10
2019-05-09T08:16:43.532Z,17.05
2019-05-09T08:18:37.516Z,17.07
2019-05-09T08:19:37.898Z,17.17
2019-05-09T08:21:28.259Z,17.20
2019-05-09T08:22:31.928Z,17.17
2019-05-09T08:24:20.949Z,17.43
2019-05-09T08:25:20.868Z,17.47
2019-05-09T08:27:13.687Z,17.51
2019-05-09T08:28:13.590Z,17.47
2019-05-09T08:30:07.873Z,17.51
2019-05-09T08:31:08.335Z,17.68
2019-05-09T08:32:59.895Z,17.84
2019-05-09T08:33:59.600Z,17.77
2019-05-09T08:35:52.830Z,18.09
2019-05-09T08:36:51.722Z,18.09
2019-05-09T08:38:44.528Z,18.28
2019-05-09T08:39:44.439Z,18.31
2019-05-09T08:41:38.509Z,18.13
2019-05-09T08:42:37.890Z,18.01
2019-05-09T08:44:31.246Z,17.83
2019-05-09T08:45:31.421Z,17.73
2019-05-09T08:47:22.641Z,17.45
2019-05-09T08:48:22.597Z,17.35
2019-05-09T08:50:17.469Z,17.05
2019-05-09T08:51:17.867Z,17.07
2019-05-09T08:53:08.505Z,16.90
2019-05-09T08:54:09.274Z,16.78
2019-05-09T08:56:00.341Z,16.72
2019-05-09T08:57:00.281Z,16.67
2019-05-09T08:58:53.087Z,16.57
2019-05-09T08:59:53.013Z,16.52
2019-05-09T09:02:08.363Z,16.70
2019-05-09T09:02:48.011Z,16.75
2019-05-09T09:04:38.647Z,16.87
2019-05-09T09:05:38.472Z,16.88
2019-05-09T09:07:31.251Z,16.96
2019-05-09T09:08:31.176Z,16.92
2019-05-09T09:10:23.921Z,17.35
2019-05-09T09:11:23.893Z,17.38
2019-05-09T09:13:17.463Z,17.65
2019-05-09T09:14:18.495Z,17.87
2019-05-09T09:16:18.464Z,18.20
2019-05-09T09:17:09.274Z,18.38
2019-05-09T09:19:02.061Z,18.57
2019-05-09T09:20:02.101Z,18.60
2019-05-09T09:21:59.555Z,18.78
2019-05-09T09:22:54.797Z,18.90
2019-05-09T09:24:48.195Z,18.84
2019-05-09T09:25:48.638Z,18.87
2019-05-09T09:27:40.230Z,18.66
2019-05-09T09:28:40.257Z,18.64
2019-05-09T09:30:32.120Z,18.39
2019-05-09T09:31:32.045Z,18.31
2019-05-09T09:33:24.852Z,18.49
2019-05-09T09:34:27.128Z,18.56
2019-05-09T09:36:18.054Z,18.66
2019-05-09T09:37:18.484Z,18.66
2019-05-09T09:39:10.274Z,18.64
2019-05-09T09:40:10.211Z,18.69
2019-05-09T09:42:03.892Z,18.90
2019-05-09T09:43:03.836Z,18.87
2019-05-09T09:44:58.558Z,18.96
2019-05-09T09:46:10.039Z,18.91
2019-05-09T09:47:49.353Z,19.71
2019-05-09T09:48:49.300Z,19.70
2019-05-09T09:50:42.090Z,19.70
2019-05-09T09:51:42.027Z,19.76
2019-05-09T09:53:35.049Z,19.57
2019-05-09T09:54:34.933Z,19.55
2019-05-09T09:56:28.358Z,19.21
2019-05-09T09:57:28.885Z,18.97
2019-05-09T09:59:19.628Z,18.47
2019-05-09T10:00:19.446Z,18.21
2019-05-09T10:02:12.162Z,17.95
2019-05-09T10:03:12.136Z,17.86
2019-05-09T10:05:04.918Z,17.76
2019-05-09T10:06:04.818Z,17.68
2019-05-09T10:07:58.166Z,17.57
2019-05-09T10:08:58.028Z,17.57
2019-05-09T10:10:50.372Z,17.12
2019-05-09T10:11:50.296Z,17.00
2019-05-09T10:13:43.164Z,16.91
2019-05-09T10:14:43.065Z,16.80
2019-05-09T10:16:35.880Z,16.72
2019-05-09T10:17:35.815Z,16.65
2019-05-09T10:19:28.709Z,16.67
2019-05-09T10:20:29.234Z,16.65
2019-05-09T10:22:24.801Z,16.72
2019-05-09T10:23:21.764Z,16.72
2019-05-09T10:25:14.150Z,16.67
2019-05-09T10:26:14.022Z,16.69
2019-05-09T10:28:08.731Z,16.63
2019-05-09T10:29:06.763Z,16.73
2019-05-09T10:30:59.549Z,16.75
2019-05-09T10:31:59.499Z,16.95
2019-05-09T10:33:52.274Z,17.10
2019-05-09T10:34:52.192Z,17.17
2019-05-09T10:36:45.002Z,17.57
2019-05-09T10:37:44.913Z,17.47
2019-05-09T10:39:38.142Z,17.77
2019-05-09T10:40:39.983Z,17.98
2019-05-09T10:42:30.463Z,18.34
2019-05-09T10:43:38.462Z,18.62
2019-05-09T10:45:23.177Z,18.87
2019-05-09T10:46:23.116Z,18.78
2019-05-09T10:48:15.021Z,18.64
2019-05-09T10:49:14.926Z,18.68
2019-05-09T10:51:10.471Z,18.97
2019-05-09T10:52:08.793Z,19.28
2019-05-09T10:54:00.485Z,19.75
2019-05-09T10:55:00.463Z,19.83
2019-05-09T10:56:53.261Z,19.89
2019-05-09T10:57:53.612Z,20.12
2019-05-09T10:59:48.276Z,20.34
2019-05-09T11:00:48.184Z,20.41
2019-05-09T11:02:38.837Z,20.42
2019-05-09T11:03:38.719Z,20.35
2019-05-09T11:05:31.532Z,19.67
2019-05-09T11:06:31.434Z,19.20
2019-05-09T11:08:24.236Z,18.65
2019-05-09T11:09:24.184Z,18.46
2019-05-09T11:11:18.313Z,18.44
2019-05-09T11:12:18.060Z,18.25
2019-05-09T11:14:09.703Z,18.04
2019-05-09T11:15:09.634Z,17.87
2019-05-09T11:17:11.010Z,17.77
2019-05-09T11:18:02.399Z,17.70
2019-05-09T11:19:55.214Z,17.54
2019-05-09T11:20:57.928Z,17.46
2019-05-09T11:22:47.903Z,17.32
2019-05-09T11:23:48.790Z,17.21
2019-05-09T11:25:40.660Z,17.24
2019-05-09T11:26:40.659Z,17.14
2019-05-09T11:28:33.772Z,16.92
2019-05-09T11:29:33.466Z,16.73
2019-05-09T11:31:26.237Z,16.54
2019-05-09T11:32:27.660Z,16.37
2019-05-09T11:34:19.214Z,16.41
2019-05-09T11:35:18.873Z,16.48
2019-05-09T11:37:11.748Z,16.36
2019-05-09T11:38:11.718Z,16.42
2019-05-09T11:40:03.559Z,16.50
2019-05-09T11:41:03.419Z,16.67
2019-05-09T11:42:56.333Z,16.85
2019-05-09T11:43:59.088Z,17.09
2019-05-09T11:45:49.032Z,17.40
2019-05-09T11:46:49.033Z,17.77
2019-05-09T11:48:41.804Z,18.38
2019-05-09T11:49:41.666Z,18.72
2019-05-09T11:51:34.565Z,19.05
2019-05-09T11:52:34.477Z,19.17
2019-05-09T11:54:27.928Z,19.27
2019-05-09T11:55:35.019Z,19.21
2019-05-09T11:57:20.250Z,19.20
2019-05-09T11:58:20.292Z,19.39
2019-05-09T12:00:13.033Z,19.49
2019-05-09T12:01:12.906Z,19.49
2019-05-09T12:03:05.780Z,19.49
2019-05-09T12:04:07.855Z,19.42
2019-05-09T12:05:58.506Z,18.68
2019-05-09T12:06:58.427Z,18.76
2019-05-09T12:08:50.424Z,18.91
2019-05-09T12:09:50.405Z,18.97
2019-05-09T12:11:44.628Z,19.21
2019-05-09T12:12:43.074Z,19.27
2019-05-09T12:14:38.099Z,19.70
2019-05-09T12:15:38.785Z,19.75
2019-05-09T12:17:40.841Z,19.90
2019-05-09T12:18:28.709Z,19.98
2019-05-09T12:20:21.389Z,20.38
2019-05-09T12:21:21.285Z,20.42
2019-05-09T12:23:13.026Z,20.51
2019-05-09T12:24:12.966Z,20.73
2019-05-09T12:26:08.168Z,20.75
2019-05-09T12:27:05.668Z,20.64
2019-05-09T12:28:58.534Z,19.76
2019-05-09T12:29:58.476Z,19.01
2019-05-09T12:31:53.159Z,18.69
2019-05-09T12:32:51.802Z,18.79
2019-05-09T12:34:44.657Z,19.20
2019-05-09T12:35:44.512Z,19.49
2019-05-09T12:37:37.899Z,19.79
2019-05-09T12:38:38.869Z,19.87
2019-05-09T12:40:30.202Z,19.86
2019-05-09T12:41:31.518Z,19.97
2019-05-09T12:43:22.113Z,19.92
2019-05-09T12:44:25.020Z,19.79
2019-05-09T12:46:14.945Z,19.71
2019-05-09T12:47:14.869Z,19.72
2019-05-09T12:49:08.935Z,19.57
2019-05-09T12:50:08.638Z,19.58
2019-05-09T12:52:00.420Z,19.35
2019-05-09T12:53:00.325Z,19.27
2019-05-09T12:54:53.149Z,19.24
2019-05-09T12:55:53.123Z,19.30
2019-05-09T12:57:48.680Z,19.30
2019-05-09T12:58:47.737Z,19.39
2019-05-09T13:00:38.731Z,19.17
2019-05-09T13:01:40.645Z,19.17
2019-05-09T13:03:31.532Z,19.57
2019-05-09T13:04:31.470Z,19.34
2019-05-09T13:06:24.454Z,19.23
2019-05-09T13:07:24.297Z,19.15
2019-05-09T13:09:17.894Z,19.28
2019-05-09T13:10:19.419Z,19.23
2019-05-09T13:12:09.784Z,19.13
2019-05-09T13:13:09.745Z,19.21
2019-05-09T13:15:02.574Z,19.30
2019-05-09T13:16:02.474Z,19.12
2019-05-09T13:17:55.321Z,19.16
2019-05-09T13:18:55.182Z,19.20
2019-05-09T13:20:48.742Z,19.31
2019-05-09T13:21:47.897Z,19.35
2019-05-09T13:23:40.845Z,19.32
2019-05-09T13:24:40.744Z,19.28
2019-05-09T13:26:33.641Z,19.27
2019-05-09T13:27:33.553Z,19.15
2019-05-09T13:29:26.402Z,19.32
2019-05-09T13:30:28.492Z,19.43
2019-05-09T13:32:19.049Z,19.45
2019-05-09T13:33:19.037Z,19.49
2019-05-09T13:35:11.809Z,19.31
2019-05-09T13:36:11.751Z,19.15
2019-05-09T13:38:04.515Z,18.90
2019-05-09T13:39:05.285Z,18.84
2019-05-09T13:40:58.412Z,18.79
2019-05-09T13:41:58.223Z,18.65
2019-05-09T13:43:57.767Z,18.56
2019-05-09T13:44:49.961Z,18.47
2019-05-09T13:46:42.860Z,18.13
2019-05-09T13:47:42.731Z,17.94
2019-05-09T13:49:35.552Z,17.71
2019-05-09T13:50:35.513Z,17.79
2019-05-09T13:52:28.298Z,17.76
2019-05-09T13:53:28.470Z,17.77
2019-05-09T13:55:21.041Z,17.94
2019-05-09T13:56:21.176Z,18.07
2019-05-09T13:58:13.806Z,18.29
2019-05-09T13:59:13.686Z,18.41
2019-05-09T14:01:07.825Z,18.66
2019-05-09T14:02:06.403Z,18.71
2019-05-09T14:03:59.261Z,18.90
2019-05-09T14:04:59.177Z,18.99
2019-05-09T14:06:52.070Z,19.23
2019-05-09T14:07:55.128Z,19.35
2019-05-09T14:09:43.762Z,19.80
2019-05-09T14:10:43.707Z,19.82
2019-05-09T14:12:38.009Z,19.85
2019-05-09T14:13:38.445Z,19.80
2019-05-09T14:15:28.317Z,19.76
2019-05-09T14:16:28.849Z,19.71
2019-05-09T14:18:21.204Z,19.46
2019-05-09T14:19:36.105Z,19.40
2019-05-09T14:21:13.778Z,19.27
2019-05-09T14:22:13.745Z,19.25
2019-05-09T14:24:15.072Z,19.07
2019-05-09T14:25:08.171Z,18.89
2019-05-09T14:26:59.243Z,18.89
2019-05-09T14:27:59.241Z,18.82
2019-05-09T14:29:52.038Z,19.07
2019-05-09T14:30:51.888Z,19.16
2019-05-09T14:32:43.888Z,19.13
2019-05-09T14:33:43.769Z,19.05
2019-05-09T14:35:38.722Z,19.24
2019-05-09T14:36:39.219Z,19.21
2019-05-09T14:38:29.401Z,19.42
2019-05-09T14:39:29.330Z,19.42
2019-05-09T14:41:22.248Z,19.50
2019-05-09T14:42:22.065Z,19.39
2019-05-09T14:44:14.874Z,19.68
2019-05-09T14:45:14.811Z,19.78
2019-05-09T14:47:08.193Z,19.64
2019-05-09T14:48:08.080Z,19.57
2019-05-09T14:50:00.485Z,19.45
2019-05-09T14:51:00.465Z,19.50
2019-05-09T14:52:53.342Z,19.38
2019-05-09T14:53:53.236Z,19.43
2019-05-09T14:55:47.393Z,19.39
2019-05-09T14:56:45.003Z,19.35
2019-05-09T14:58:38.801Z,19.52
2019-05-09T14:59:38.438Z,19.49
2019-05-09T15:01:30.622Z,19.32
2019-05-09T15:02:30.519Z,19.42
2019-05-09T15:04:23.346Z,19.35
2019-05-09T15:05:23.306Z,19.34
2019-05-09T15:07:18.641Z,19.42
2019-05-09T15:08:18.119Z,19.35
2019-05-09T15:10:08.819Z,19.28
2019-05-09T15:11:09.864Z,19.21
2019-05-09T15:13:00.809Z,19.17
2019-05-09T15:14:01.240Z,19.23
2019-05-09T15:15:53.662Z,19.34
2019-05-09T15:16:53.513Z,19.28
2019-05-09T15:18:48.622Z,19.40
2019-05-09T15:19:57.350Z,19.38
2019-05-09T15:21:40.302Z,19.67
2019-05-09T15:22:40.106Z,19.53
2019-05-09T15:24:33.230Z,19.70
2019-05-09T15:25:33.183Z,19.72
2019-05-09T15:27:27.722Z,19.72
2019-05-09T15:28:25.856Z,19.82
2019-05-09T15:30:18.947Z,19.70
2019-05-09T15:31:18.763Z,19.57
2019-05-09T15:33:11.505Z,19.10
2019-05-09T15:34:11.492Z,19.01
2019-05-09T15:36:04.201Z,18.84
2019-05-09T15:37:04.127Z,18.79
2019-05-09T15:38:59.145Z,18.60
2019-05-09T15:39:57.004Z,18.49
2019-05-09T15:41:50.364Z,18.47
2019-05-09T15:42:49.718Z,18.49
2019-05-09T15:44:42.966Z,18.49
2019-05-09T15:45:42.538Z,18.47
2019-05-09T15:47:37.651Z,18.42
2019-05-09T15:48:35.249Z,18.35
2019-05-09T15:50:28.143Z,18.36
2019-05-09T15:51:31.877Z,18.32
2019-05-09T15:53:20.826Z,18.38
2019-05-09T15:54:20.753Z,18.44
2019-05-09T15:56:13.696Z,18.50
2019-05-09T15:57:13.580Z,18.39
2019-05-09T15:59:06.466Z,18.36
2019-05-09T16:00:08.281Z,18.36
2019-05-09T16:01:59.142Z,18.42
2019-05-09T16:02:59.282Z,18.34
2019-05-09T16:04:52.027Z,18.23
2019-05-09T16:05:51.775Z,18.04
2019-05-09T16:07:44.575Z,17.98
2019-05-09T16:08:44.882Z,18.02
2019-05-09T16:10:37.472Z,18.09
2019-05-09T16:11:37.786Z,18.19
2019-05-09T16:13:30.025Z,18.29
2019-05-09T16:14:29.949Z,18.38
2019-05-09T16:16:23.047Z,18.46
2019-05-09T16:17:22.792Z,18.49
2019-05-09T16:19:15.533Z,18.47
2019-05-09T16:20:17.928Z,18.57
2019-05-09T16:22:08.317Z,18.57
2019-05-09T16:23:08.503Z,18.57
2019-05-09T16:25:01.066Z,18.65
2019-05-09T16:26:01.000Z,18.68
2019-05-09T16:27:53.790Z,18.62
2019-05-09T16:28:53.673Z,18.64
2019-05-09T16:30:48.292Z,18.62
2019-05-09T16:31:48.069Z,18.59
2019-05-09T16:33:39.236Z,18.60
2019-05-09T16:34:39.162Z,18.59
2019-05-09T16:36:32.026Z,18.54
2019-05-09T16:37:56.346Z,18.62
2019-05-09T16:39:24.804Z,18.62
2019-05-09T16:40:24.646Z,18.62
2019-05-09T16:42:17.452Z,18.66
2019-05-09T16:43:17.891Z,18.71
2019-05-09T16:45:10.242Z,18.68
2019-05-09T16:46:10.145Z,18.69
2019-05-09T16:48:03.048Z,18.64
2019-05-09T16:49:05.199Z,18.49
2019-05-09T16:51:03.213Z,17.99
2019-05-09T16:51:58.046Z,17.83
2019-05-09T16:53:49.849Z,17.84
2019-05-09T16:54:50.138Z,17.74
2019-05-09T16:56:41.915Z,17.84
2019-05-09T16:57:41.171Z,17.71
2019-05-09T16:59:33.972Z,17.77
2019-05-09T17:00:33.967Z,17.74
2019-05-09T17:02:28.739Z,17.57
2019-05-09T17:03:28.412Z,17.53
2019-05-09T17:05:18.672Z,17.53
2019-05-09T17:06:18.563Z,17.49
2019-05-09T17:08:11.374Z,17.53
2019-05-09T17:09:11.326Z,17.51
2019-05-09T17:11:07.635Z,17.57
2019-05-09T17:13:58.512Z,17.53
2019-05-09T17:14:59.699Z,17.62
2019-05-09T17:16:52.912Z,17.74
2019-05-09T17:17:51.179Z,17.66
2019-05-09T17:19:47.931Z,17.68
2019-05-09T17:20:43.687Z,17.55
2019-05-09T17:22:38.215Z,17.55
2019-05-09T17:23:38.326Z,17.54
2019-05-09T17:25:29.673Z,17.43
2019-05-09T17:26:29.321Z,17.36
2019-05-09T17:28:22.033Z,17.21
2019-05-09T17:29:21.949Z,17.25
2019-05-09T17:31:14.773Z,17.18
2019-05-09T17:32:14.714Z,17.20
2019-05-09T17:34:07.542Z,17.10
2019-05-09T17:35:07.476Z,17.15
2019-05-09T17:37:00.274Z,17.12
2019-05-09T17:38:00.191Z,17.15
2019-05-09T17:39:53.128Z,17.06
2019-05-09T17:40:52.963Z,17.00
2019-05-09T17:42:44.810Z,16.99
2019-05-09T17:43:44.686Z,16.96
2019-05-09T17:45:41.689Z,16.84
2019-05-09T17:46:38.565Z,16.80
2019-05-09T17:48:32.136Z,16.80
2019-05-09T17:49:32.002Z,16.73
2019-05-09T17:51:33.026Z,16.54
2019-05-09T17:52:24.733Z,16.62
2019-05-09T17:54:18.240Z,16.65
2019-05-09T17:55:18.335Z,16.47
2019-05-09T17:57:10.361Z,16.54
2019-05-09T17:58:25.641Z,16.54
2019-05-09T18:00:03.086Z,16.51
2019-05-09T18:01:03.193Z,16.52
2019-05-09T18:02:57.918Z,16.48
2019-05-09T18:03:55.852Z,16.42
2019-05-09T18:05:48.826Z,16.44
2019-05-09T18:06:49.041Z,16.45
2019-05-09T18:08:41.400Z,16.36
2019-05-09T18:09:41.327Z,16.32
2019-05-09T18:11:34.129Z,16.25
2019-05-09T18:12:34.085Z,16.23
2019-05-09T18:14:27.681Z,16.16
2019-05-09T18:15:28.248Z,16.17
2019-05-09T18:17:19.623Z,15.98
2019-05-09T18:18:19.521Z,15.89
2019-05-09T18:20:12.356Z,15.86
2019-05-09T18:21:12.241Z,15.88
2019-05-09T18:23:05.041Z,15.81
2019-05-09T18:24:04.960Z,15.77
2019-05-09T18:25:58.567Z,15.66
2019-05-09T18:26:58.372Z,15.59
2019-05-09T18:28:50.536Z,15.55
2019-05-09T18:29:50.462Z,15.60
2019-05-09T18:31:43.335Z,15.53
2019-05-09T18:32:43.172Z,15.41
2019-05-09T18:34:37.962Z,15.44